sensor_id;sensor_type;location;lat;lon;timestamp;pressure;altitude;pressure_sealevel;temperature;humidity
19112;BME280;9688;51.906;8.376;2023-05-24T00:01:43;101441.16;;;9.60;88.49
19112;BME280;9688;51.906;8.376;2023-05-24T00:04:29;101444.75;;;9.58;87.99
19112;BME280;9688;51.906;8.376;2023-05-24T00:07:16;101442.16;;;9.56;88.48
19112;BME280;9688;51.906;8.376;2023-05-24T00:10:06;101449.22;;;9.54;88.53
19112;BME280;9688;51.906;8.376;2023-05-24T00:12:52;101454.59;;;9.50;88.59
19112;BME280;9688;51.906;8.376;2023-05-24T00:15:37;101449.41;;;9.45;89.46
19112;BME280;9688;51.906;8.376;2023-05-24T00:18:23;101452.16;;;9.39;89.85
19112;BME280;9688;51.906;8.376;2023-05-24T00:21:10;101446.16;;;9.32;89.48
19112;BME280;9688;51.906;8.376;2023-05-24T00:23:57;101443.59;;;9.28;90.51
19112;BME280;9688;51.906;8.376;2023-05-24T00:26:43;101440.13;;;9.26;90.91
19112;BME280;9688;51.906;8.376;2023-05-24T00:29:29;101443.63;;;9.26;89.91
19112;BME280;9688;51.906;8.376;2023-05-24T00:32:15;101439.28;;;9.24;89.99
19112;BME280;9688;51.906;8.376;2023-05-24T00:35:01;101442.00;;;9.19;90.61
19112;BME280;9688;51.906;8.376;2023-05-24T00:37:47;101441.22;;;9.15;90.42
19112;BME280;9688;51.906;8.376;2023-05-24T00:40:35;101431.59;;;9.11;91.22
19112;BME280;9688;51.906;8.376;2023-05-24T00:43:21;101428.22;;;9.06;90.67
19112;BME280;9688;51.906;8.376;2023-05-24T00:46:17;101428.28;;;9.00;91.99
19112;BME280;9688;51.906;8.376;2023-05-24T00:49:05;101419.59;;;8.97;92.20
19112;BME280;9688;51.906;8.376;2023-05-24T00:51:54;101416.16;;;8.91;92.19
19112;BME280;9688;51.906;8.376;2023-05-24T00:54:40;101415.34;;;8.88;92.25
19112;BME280;9688;51.906;8.376;2023-05-24T00:57:27;101415.41;;;8.85;92.47
19112;BME280;9688;51.906;8.376;2023-05-24T01:00:13;101416.34;;;8.81;93.14
19112;BME280;9688;51.906;8.376;2023-05-24T01:03:00;101420.81;;;8.77;92.43
19112;BME280;9688;51.906;8.376;2023-05-24T01:05:46;101421.75;;;8.75;93.52
19112;BME280;9688;51.906;8.376;2023-05-24T01:08:56;101416.53;;;8.73;93.89
19112;BME280;9688;51.906;8.376;2023-05-24T01:11:58;101413.00;;;8.73;93.57
19112;BME280;9688;51.906;8.376;2023-05-24T01:14:55;101420.94;;;8.71;93.70
19112;BME280;9688;51.906;8.376;2023-05-24T01:17:46;101413.94;;;8.68;94.21
19112;BME280;9688;51.906;8.376;2023-05-24T01:20:35;101404.34;;;8.64;94.33
19112;BME280;9688;51.906;8.376;2023-05-24T01:23:31;101407.03;;;8.61;94.08
19112;BME280;9688;51.906;8.376;2023-05-24T01:26:31;101402.72;;;8.57;94.18
19112;BME280;9688;51.906;8.376;2023-05-24T01:29:24;101393.13;;;8.53;94.80
19112;BME280;9688;51.906;8.376;2023-05-24T01:32:11;101390.59;;;8.48;94.56
19112;BME280;9688;51.906;8.376;2023-05-24T01:34:57;101399.41;;;8.46;95.37
19112;BME280;9688;51.906;8.376;2023-05-24T01:37:43;101394.22;;;8.41;95.72
19112;BME280;9688;51.906;8.376;2023-05-24T01:40:29;101392.53;;;8.36;95.96
19112;BME280;9688;51.906;8.376;2023-05-24T01:43:20;101390.81;;;8.33;95.59
19112;BME280;9688;51.906;8.376;2023-05-24T01:46:15;101388.28;;;8.29;95.98
19112;BME280;9688;51.906;8.376;2023-05-24T01:49:12;101392.69;;;8.25;96.24
19112;BME280;9688;51.906;8.376;2023-05-24T01:52:07;101398.94;;;8.19;96.57
19112;BME280;9688;51.906;8.376;2023-05-24T01:54:55;101383.19;;;8.16;96.70
19112;BME280;9688;51.906;8.376;2023-05-24T01:57:43;101390.22;;;8.14;97.20
19112;BME280;9688;51.906;8.376;2023-05-24T02:00:30;101382.38;;;8.11;97.08
19112;BME280;9688;51.906;8.376;2023-05-24T02:03:19;101381.53;;;8.09;97.30
19112;BME280;9688;51.906;8.376;2023-05-24T02:06:06;101376.25;;;8.11;97.01
19112;BME280;9688;51.906;8.376;2023-05-24T02:08:53;101379.75;;;8.11;97.22
19112;BME280;9688;51.906;8.376;2023-05-24T02:11:39;101384.16;;;8.09;97.48
19112;BME280;9688;51.906;8.376;2023-05-24T02:14:25;101379.81;;;8.08;97.54
19112;BME280;9688;51.906;8.376;2023-05-24T02:17:11;101386.84;;;8.08;97.99
19112;BME280;9688;51.906;8.376;2023-05-24T02:19:59;101381.63;;;8.04;97.25
19112;BME280;9688;51.906;8.376;2023-05-24T02:22:52;101381.69;;;8.01;97.79
19112;BME280;9688;51.906;8.376;2023-05-24T02:25:37;101384.31;;;8.01;97.77
19112;BME280;9688;51.906;8.376;2023-05-24T02:28:23;101386.94;;;8.00;98.07
19112;BME280;9688;51.906;8.376;2023-05-24T02:31:08;101382.53;;;8.00;98.23
19112;BME280;9688;51.906;8.376;2023-05-24T02:33:54;101385.22;;;7.99;98.55
19112;BME280;9688;51.906;8.376;2023-05-24T02:36:41;101381.78;;;7.94;98.77
19112;BME280;9688;51.906;8.376;2023-05-24T02:39:28;101394.94;;;7.94;99.04
19112;BME280;9688;51.906;8.376;2023-05-24T02:42:14;101399.25;;;7.98;98.95
19112;BME280;9688;51.906;8.376;2023-05-24T02:45:00;101389.63;;;7.98;98.85
19112;BME280;9688;51.906;8.376;2023-05-24T02:47:46;101386.94;;;8.00;99.35
19112;BME280;9688;51.906;8.376;2023-05-24T02:50:32;101386.09;;;8.01;99.00
19112;BME280;9688;51.906;8.376;2023-05-24T02:53:19;101386.03;;;8.02;98.88
19112;BME280;9688;51.906;8.376;2023-05-24T02:56:05;101382.53;;;8.00;98.70
19112;BME280;9688;51.906;8.376;2023-05-24T02:58:51;101385.22;;;7.97;98.65
19112;BME280;9688;51.906;8.376;2023-05-24T03:01:38;101401.94;;;7.95;98.60
19112;BME280;9688;51.906;8.376;2023-05-24T03:04:24;101394.94;;;7.94;98.64
19112;BME280;9688;51.906;8.376;2023-05-24T03:07:10;101397.59;;;7.94;99.29
19112;BME280;9688;51.906;8.376;2023-05-24T03:09:58;101393.22;;;7.93;99.07
19112;BME280;9688;51.906;8.376;2023-05-24T03:12:44;101397.59;;;7.94;99.26
19112;BME280;9688;51.906;8.376;2023-05-24T03:15:29;101393.19;;;7.94;99.02
19112;BME280;9688;51.906;8.376;2023-05-24T03:18:15;101391.44;;;7.93;98.99
19112;BME280;9688;51.906;8.376;2023-05-24T03:21:01;101385.34;;;7.90;99.21
19112;BME280;9688;51.906;8.376;2023-05-24T03:23:46;101389.75;;;7.89;99.85
19112;BME280;9688;51.906;8.376;2023-05-24T03:26:33;101390.59;;;7.90;99.40
19112;BME280;9688;51.906;8.376;2023-05-24T03:29:19;101394.09;;;7.92;99.61
19112;BME280;9688;51.906;8.376;2023-05-24T03:32:04;101399.31;;;7.96;99.79
19112;BME280;9688;51.906;8.376;2023-05-24T03:34:50;101399.25;;;8.01;99.73
19112;BME280;9688;51.906;8.376;2023-05-24T03:37:36;101401.78;;;8.07;99.92
19112;BME280;9688;51.906;8.376;2023-05-24T03:40:22;101400.81;;;8.13;99.47
19112;BME280;9688;51.906;8.376;2023-05-24T03:43:10;101399.94;;;8.12;99.13
19112;BME280;9688;51.906;8.376;2023-05-24T03:45:56;101400.75;;;8.14;99.61
19112;BME280;9688;51.906;8.376;2023-05-24T03:48:41;101409.53;;;8.16;99.68
19112;BME280;9688;51.906;8.376;2023-05-24T03:51:27;101409.38;;;8.25;99.23
19112;BME280;9688;51.906;8.376;2023-05-24T03:54:13;101416.28;;;8.33;99.03
19112;BME280;9688;51.906;8.376;2023-05-24T03:56:59;101411.78;;;8.41;99.61
19112;BME280;9688;51.906;8.376;2023-05-24T03:59:47;101407.25;;;8.49;98.94
19112;BME280;9688;51.906;8.376;2023-05-24T04:02:33;101412.34;;;8.60;99.43
19112;BME280;9688;51.906;8.376;2023-05-24T04:05:21;101408.63;;;8.70;99.09
19112;BME280;9688;51.906;8.376;2023-05-24T04:08:10;101413.75;;;8.79;98.97
19112;BME280;9688;51.906;8.376;2023-05-24T04:10:58;101409.16;;;8.90;99.21
19112;BME280;9688;51.906;8.376;2023-05-24T04:13:46;101408.97;;;9.00;98.50
19112;BME280;9688;51.906;8.376;2023-05-24T04:16:33;101405.41;;;9.04;97.98
19112;BME280;9688;51.906;8.376;2023-05-24T04:19:18;101408.84;;;9.07;98.52
19112;BME280;9688;51.906;8.376;2023-05-24T04:22:04;101421.09;;;9.08;97.95
19112;BME280;9688;51.906;8.376;2023-05-24T04:24:50;101417.59;;;9.09;98.47
19112;BME280;9688;51.906;8.376;2023-05-24T04:27:36;101405.28;;;9.10;98.52
19112;BME280;9688;51.906;8.376;2023-05-24T04:30:22;101406.06;;;9.13;98.52
19112;BME280;9688;51.906;8.376;2023-05-24T04:33:09;101389.28;;;9.18;98.87
19112;BME280;9688;51.906;8.376;2023-05-24T04:35:54;101397.16;;;9.21;98.15
19112;BME280;9688;51.906;8.376;2023-05-24T04:38:40;101397.00;;;9.27;98.66
19112;BME280;9688;51.906;8.376;2023-05-24T04:41:26;101390.75;;;9.32;98.13
19112;BME280;9688;51.906;8.376;2023-05-24T04:44:14;101398.63;;;9.34;98.03
19112;BME280;9688;51.906;8.376;2023-05-24T04:47:00;101391.59;;;9.34;98.51
19112;BME280;9688;51.906;8.376;2023-05-24T04:49:48;101401.28;;;9.34;97.74
19112;BME280;9688;51.906;8.376;2023-05-24T04:52:34;101394.09;;;9.39;98.24
19112;BME280;9688;51.906;8.376;2023-05-24T04:55:20;101394.00;;;9.45;97.83
19112;BME280;9688;51.906;8.376;2023-05-24T04:58:06;101406.13;;;9.54;97.84
19112;BME280;9688;51.906;8.376;2023-05-24T05:00:52;101409.53;;;9.59;98.72
19112;BME280;9688;51.906;8.376;2023-05-24T05:03:38;101400.47;;;9.71;98.35
19112;BME280;9688;51.906;8.376;2023-05-24T05:06:25;101404.31;;;9.95;97.71
19112;BME280;9688;51.906;8.376;2023-05-24T05:09:11;101409.28;;;10.09;97.50
19112;BME280;9688;51.906;8.376;2023-05-24T05:11:57;101415.16;;;10.21;97.47
19112;BME280;9688;51.906;8.376;2023-05-24T05:14:44;101406.13;;;10.32;97.54
19112;BME280;9688;51.906;8.376;2023-05-24T05:17:30;101400.69;;;10.38;96.83
19112;BME280;9688;51.906;8.376;2023-05-24T05:20:16;101405.97;;;10.38;96.78
19112;BME280;9688;51.906;8.376;2023-05-24T05:23:03;101406.66;;;10.46;97.28
19112;BME280;9688;51.906;8.376;2023-05-24T05:25:48;101401.94;;;10.57;95.70
19112;BME280;9688;51.906;8.376;2023-05-24T05:28:34;101404.78;;;10.49;95.84
19112;BME280;9688;51.906;8.376;2023-05-24T05:31:20;101405.47;;;10.58;96.27
19112;BME280;9688;51.906;8.376;2023-05-24T05:34:07;101408.56;;;10.74;96.22
19112;BME280;9688;51.906;8.376;2023-05-24T05:36:54;101411.53;;;10.94;95.59
19112;BME280;9688;51.906;8.376;2023-05-24T05:39:41;101412.28;;;11.30;94.32
19112;BME280;9688;51.906;8.376;2023-05-24T05:42:31;101418.31;;;11.67;93.35
19112;BME280;9688;51.906;8.376;2023-05-24T05:45:17;101414.94;;;11.61;93.08
19112;BME280;9688;51.906;8.376;2023-05-24T05:48:03;101419.41;;;11.59;93.88
19112;BME280;9688;51.906;8.376;2023-05-24T05:50:50;101411.56;;;11.55;92.96
19112;BME280;9688;51.906;8.376;2023-05-24T05:53:37;101414.00;;;11.63;93.81
19112;BME280;9688;51.906;8.376;2023-05-24T05:56:27;101417.25;;;11.72;92.58
19112;BME280;9688;51.906;8.376;2023-05-24T05:59:15;101432.13;;;11.76;92.99
19112;BME280;9688;51.906;8.376;2023-05-24T06:02:01;101425.81;;;11.80;92.50
19112;BME280;9688;51.906;8.376;2023-05-24T06:04:49;101422.72;;;11.96;92.12
19112;BME280;9688;51.906;8.376;2023-05-24T06:07:35;101421.38;;;12.11;92.11
19112;BME280;9688;51.906;8.376;2023-05-24T06:10:22;101431.53;;;12.24;91.63
19112;BME280;9688;51.906;8.376;2023-05-24T06:13:09;101431.06;;;12.38;91.14
19112;BME280;9688;51.906;8.376;2023-05-24T06:15:55;101434.41;;;12.45;90.75
19112;BME280;9688;51.906;8.376;2023-05-24T06:18:42;101434.31;;;12.48;90.88
19112;BME280;9688;51.906;8.376;2023-05-24T06:21:28;101430.72;;;12.49;90.35
19112;BME280;9688;51.906;8.376;2023-05-24T06:24:18;101430.28;;;12.36;91.04
19112;BME280;9688;51.906;8.376;2023-05-24T06:27:04;101431.53;;;12.24;91.23
19112;BME280;9688;51.906;8.376;2023-05-24T06:29:52;101427.47;;;12.14;91.35
19112;BME280;9688;51.906;8.376;2023-05-24T06:32:37;101432.06;;;12.08;91.39
19112;BME280;9688;51.906;8.376;2023-05-24T06:35:24;101432.28;;;12.01;91.54
19112;BME280;9688;51.906;8.376;2023-05-24T06:38:11;101439.06;;;12.10;91.35
19112;BME280;9688;51.906;8.376;2023-05-24T06:40:57;101425.72;;;12.13;91.71
19112;BME280;9688;51.906;8.376;2023-05-24T06:43:43;101432.91;;;12.10;91.59
19112;BME280;9688;51.906;8.376;2023-05-24T06:46:31;101435.34;;;12.16;90.92
19112;BME280;9688;51.906;8.376;2023-05-24T06:49:18;101434.88;;;12.31;90.44
19112;BME280;9688;51.906;8.376;2023-05-24T06:52:05;101437.34;;;12.36;91.06
19112;BME280;9688;51.906;8.376;2023-05-24T06:54:52;101440.63;;;12.44;90.86
19112;BME280;9688;51.906;8.376;2023-05-24T06:57:38;101434.97;;;12.55;90.51
19112;BME280;9688;51.906;8.376;2023-05-24T07:00:24;101441.81;;;12.62;89.92
19112;BME280;9688;51.906;8.376;2023-05-24T07:03:12;101437.56;;;12.56;90.20
19112;BME280;9688;51.906;8.376;2023-05-24T07:05:58;101444.50;;;12.60;90.15
19112;BME280;9688;51.906;8.376;2023-05-24T07:08:43;101449.41;;;12.72;89.57
19112;BME280;9688;51.906;8.376;2023-05-24T07:11:30;101451.72;;;12.82;89.41
19112;BME280;9688;51.906;8.376;2023-05-24T07:14:24;101451.84;;;12.79;89.83
19112;BME280;9688;51.906;8.376;2023-05-24T07:17:11;101447.25;;;12.84;89.66
19112;BME280;9688;51.906;8.376;2023-05-24T07:20:00;101452.56;;;13.09;89.17
19112;BME280;9688;51.906;8.376;2023-05-24T07:22:50;101454.38;;;13.33;88.37
19112;BME280;9688;51.906;8.376;2023-05-24T07:25:36;101464.41;;;13.49;87.85
19112;BME280;9688;51.906;8.376;2023-05-24T07:28:22;101454.22;;;13.61;87.14
19112;BME280;9688;51.906;8.376;2023-05-24T07:31:09;101452.94;;;13.72;87.04
19112;BME280;9688;51.906;8.376;2023-05-24T07:33:54;101453.28;;;13.86;86.60
19112;BME280;9688;51.906;8.376;2023-05-24T07:36:42;101454.81;;;13.92;85.99
19112;BME280;9688;51.906;8.376;2023-05-24T07:39:31;101448.72;;;14.12;85.73
19112;BME280;9688;51.906;8.376;2023-05-24T07:42:17;101454.94;;;14.33;85.01
19112;BME280;9688;51.906;8.376;2023-05-24T07:45:03;101455.47;;;14.42;84.50
19112;BME280;9688;51.906;8.376;2023-05-24T07:47:52;101455.19;;;14.48;84.09
19112;BME280;9688;51.906;8.376;2023-05-24T07:50:41;101462.72;;;14.61;83.49
19112;BME280;9688;51.906;8.376;2023-05-24T07:53:35;101446.66;;;14.62;83.44
19112;BME280;9688;51.906;8.376;2023-05-24T07:56:21;101451.69;;;14.70;83.49
19112;BME280;9688;51.906;8.376;2023-05-24T07:59:08;101443.50;;;14.95;82.24
19112;BME280;9688;51.906;8.376;2023-05-24T08:01:54;101448.25;;;14.88;81.92
19112;BME280;9688;51.906;8.376;2023-05-24T08:04:45;101454.69;;;14.83;82.06
19112;BME280;9688;51.906;8.376;2023-05-24T08:07:34;101452.03;;;14.83;81.63
19112;BME280;9688;51.906;8.376;2023-05-24T08:10:22;101453.03;;;15.01;81.08
19112;BME280;9688;51.906;8.376;2023-05-24T08:13:09;101457.03;;;15.11;80.24
19112;BME280;9688;51.906;8.376;2023-05-24T08:15:55;101459.13;;;15.23;79.57
19112;BME280;9688;51.906;8.376;2023-05-24T08:18:42;101454.53;;;15.27;79.11
19112;BME280;9688;51.906;8.376;2023-05-24T08:21:29;101454.28;;;15.12;79.28
19112;BME280;9688;51.906;8.376;2023-05-24T08:24:15;101463.53;;;15.04;79.25
19112;BME280;9688;51.906;8.376;2023-05-24T08:27:05;101461.06;;;14.99;78.34
19112;BME280;9688;51.906;8.376;2023-05-24T08:29:52;101472.22;;;14.88;78.46
19112;BME280;9688;51.906;8.376;2023-05-24T08:32:39;101458.91;;;14.88;78.97
19112;BME280;9688;51.906;8.376;2023-05-24T08:35:25;101460.16;;;15.00;78.79
19112;BME280;9688;51.906;8.376;2023-05-24T08:38:12;101460.28;;;15.17;77.58
19112;BME280;9688;51.906;8.376;2023-05-24T08:40:58;101455.13;;;15.33;76.91
19112;BME280;9688;51.906;8.376;2023-05-24T08:43:49;101462.50;;;15.47;76.52
19112;BME280;9688;51.906;8.376;2023-05-24T08:46:36;101456.31;;;15.66;76.19
19112;BME280;9688;51.906;8.376;2023-05-24T08:49:23;101456.59;;;15.80;75.67
19112;BME280;9688;51.906;8.376;2023-05-24T08:52:11;101453.47;;;16.08;75.54
19112;BME280;9688;51.906;8.376;2023-05-24T08:55:00;101460.97;;;16.19;74.04
19112;BME280;9688;51.906;8.376;2023-05-24T08:57:47;101458.06;;;16.04;73.91
19112;BME280;9688;51.906;8.376;2023-05-24T09:00:34;101458.16;;;16.03;74.02
19112;BME280;9688;51.906;8.376;2023-05-24T09:03:20;101454.13;;;16.13;73.77
19112;BME280;9688;51.906;8.376;2023-05-24T09:06:08;101446.47;;;16.24;73.24
19112;BME280;9688;51.906;8.376;2023-05-24T09:08:54;101455.81;;;16.33;72.31
19112;BME280;9688;51.906;8.376;2023-05-24T09:11:42;101461.00;;;16.36;72.68
19112;BME280;9688;51.906;8.376;2023-05-24T09:14:30;101455.03;;;16.31;72.29
19112;BME280;9688;51.906;8.376;2023-05-24T09:17:19;101451.66;;;16.27;72.19
19112;BME280;9688;51.906;8.376;2023-05-24T09:20:06;101455.38;;;16.23;72.72
19112;BME280;9688;51.906;8.376;2023-05-24T09:22:54;101456.00;;;16.11;72.48
19112;BME280;9688;51.906;8.376;2023-05-24T09:25:46;101455.19;;;16.09;72.46
19112;BME280;9688;51.906;8.376;2023-05-24T09:28:32;101460.75;;;16.04;72.42
19112;BME280;9688;51.906;8.376;2023-05-24T09:31:18;101465.38;;;15.82;73.13
19112;BME280;9688;51.906;8.376;2023-05-24T09:34:16;101469.06;;;15.59;73.68
19112;BME280;9688;51.906;8.376;2023-05-24T09:37:03;101470.22;;;15.53;74.70
19112;BME280;9688;51.906;8.376;2023-05-24T09:39:50;101477.88;;;15.40;74.45
19112;BME280;9688;51.906;8.376;2023-05-24T09:42:38;101476.50;;;15.32;75.44
19112;BME280;9688;51.906;8.376;2023-05-24T09:45:27;101475.53;;;15.14;75.60
19112;BME280;9688;51.906;8.376;2023-05-24T09:48:15;101473.38;;;15.02;76.49
19112;BME280;9688;51.906;8.376;2023-05-24T09:51:05;101471.00;;;14.95;77.00
19112;BME280;9688;51.906;8.376;2023-05-24T09:53:56;101474.59;;;14.94;77.24
19112;BME280;9688;51.906;8.376;2023-05-24T09:56:45;101473.19;;;15.06;78.11
19112;BME280;9688;51.906;8.376;2023-05-24T09:59:31;101469.72;;;15.25;77.81
19112;BME280;9688;51.906;8.376;2023-05-24T10:02:36;101466.97;;;15.47;77.02
19112;BME280;9688;51.906;8.376;2023-05-24T10:05:23;101471.88;;;15.56;76.41
19112;BME280;9688;51.906;8.376;2023-05-24T10:08:11;101462.41;;;15.49;76.23
19112;BME280;9688;51.906;8.376;2023-05-24T10:11:00;101466.50;;;15.37;75.28
19112;BME280;9688;51.906;8.376;2023-05-24T10:13:48;101464.94;;;15.33;74.42
19112;BME280;9688;51.906;8.376;2023-05-24T10:16:38;101461.28;;;15.54;73.95
19112;BME280;9688;51.906;8.376;2023-05-24T10:19:23;101476.22;;;15.58;72.95
19112;BME280;9688;51.906;8.376;2023-05-24T10:22:11;101473.34;;;15.63;72.76
19112;BME280;9688;51.906;8.376;2023-05-24T10:25:01;101477.25;;;15.54;72.35
19112;BME280;9688;51.906;8.376;2023-05-24T10:27:51;101477.03;;;15.40;72.22
19112;BME280;9688;51.906;8.376;2023-05-24T10:30:43;101482.06;;;15.27;72.15
19112;BME280;9688;51.906;8.376;2023-05-24T10:33:35;101466.72;;;15.12;72.43
19112;BME280;9688;51.906;8.376;2023-05-24T10:36:22;101477.66;;;15.06;73.00
19112;BME280;9688;51.906;8.376;2023-05-24T10:39:09;101485.19;;;15.16;72.85
19112;BME280;9688;51.906;8.376;2023-05-24T10:42:01;101476.44;;;15.13;72.97
19112;BME280;9688;51.906;8.376;2023-05-24T10:44:47;101483.13;;;15.03;72.92
19112;BME280;9688;51.906;8.376;2023-05-24T10:47:36;101487.50;;;15.04;72.85
19112;BME280;9688;51.906;8.376;2023-05-24T10:50:27;101491.50;;;15.14;73.22
19112;BME280;9688;51.906;8.376;2023-05-24T10:53:15;101485.09;;;15.18;72.99
19112;BME280;9688;51.906;8.376;2023-05-24T10:56:07;101485.91;;;15.20;73.25
19112;BME280;9688;51.906;8.376;2023-05-24T10:59:00;101487.19;;;15.11;73.76
19112;BME280;9688;51.906;8.376;2023-05-24T11:01:58;101488.78;;;14.95;73.90
19112;BME280;9688;51.906;8.376;2023-05-24T11:04:46;101484.56;;;14.89;74.37
19112;BME280;9688;51.906;8.376;2023-05-24T11:07:40;101479.50;;;14.83;74.47
19112;BME280;9688;51.906;8.376;2023-05-24T11:10:33;101488.09;;;14.90;75.11
19112;BME280;9688;51.906;8.376;2023-05-24T11:13:29;101492.50;;;15.11;75.15
19112;BME280;9688;51.906;8.376;2023-05-24T11:16:39;101481.09;;;15.28;74.87
19112;BME280;9688;51.906;8.376;2023-05-24T11:19:31;101479.00;;;15.55;75.19
19112;BME280;9688;51.906;8.376;2023-05-24T11:22:59;101478.44;;;15.88;75.31
19112;BME280;9688;51.906;8.376;2023-05-24T11:25:51;101476.38;;;16.12;74.32
19112;BME280;9688;51.906;8.376;2023-05-24T11:28:42;101472.69;;;16.34;74.42
19112;BME280;9688;51.906;8.376;2023-05-24T11:31:29;101471.38;;;16.42;73.84
19112;BME280;9688;51.906;8.376;2023-05-24T11:34:20;101478.91;;;16.51;73.77
19112;BME280;9688;51.906;8.376;2023-05-24T11:37:09;101473.97;;;16.44;73.84
19112;BME280;9688;51.906;8.376;2023-05-24T11:39:56;101472.50;;;16.56;73.01
19112;BME280;9688;51.906;8.376;2023-05-24T11:42:42;101477.84;;;16.73;72.29
19112;BME280;9688;51.906;8.376;2023-05-24T11:45:29;101472.78;;;16.86;71.76
19112;BME280;9688;51.906;8.376;2023-05-24T11:48:19;101477.81;;;16.92;71.07
19112;BME280;9688;51.906;8.376;2023-05-24T11:51:08;101475.84;;;16.95;71.26
19112;BME280;9688;51.906;8.376;2023-05-24T11:54:03;101478.34;;;16.99;71.51
19112;BME280;9688;51.906;8.376;2023-05-24T11:56:51;101471.81;;;17.04;70.83
19112;BME280;9688;51.906;8.376;2023-05-24T11:59:41;101465.84;;;17.16;70.45
19112;BME280;9688;51.906;8.376;2023-05-24T12:02:28;101457.50;;;17.23;69.54
19112;BME280;9688;51.906;8.376;2023-05-24T12:05:17;101464.91;;;17.17;69.92
19112;BME280;9688;51.906;8.376;2023-05-24T12:08:06;101469.00;;;17.25;69.55
19112;BME280;9688;51.906;8.376;2023-05-24T12:10:54;101456.94;;;17.33;69.83
19112;BME280;9688;51.906;8.376;2023-05-24T12:13:40;101465.09;;;17.48;68.82
19112;BME280;9688;51.906;8.376;2023-05-24T12:16:27;101462.00;;;17.55;68.81
19112;BME280;9688;51.906;8.376;2023-05-24T12:19:16;101457.09;;;17.64;68.30
19112;BME280;9688;51.906;8.376;2023-05-24T12:22:03;101469.69;;;17.61;68.43
19112;BME280;9688;51.906;8.376;2023-05-24T12:24:51;101462.06;;;17.54;68.59
19112;BME280;9688;51.906;8.376;2023-05-24T12:27:41;101465.88;;;17.50;68.03
19112;BME280;9688;51.906;8.376;2023-05-24T12:30:31;101464.41;;;17.44;68.59
19112;BME280;9688;51.906;8.376;2023-05-24T12:33:18;101466.94;;;17.30;68.56
19112;BME280;9688;51.906;8.376;2023-05-24T12:36:09;101469.31;;;16.84;69.51
19112;BME280;9688;51.906;8.376;2023-05-24T12:38:58;101466.59;;;16.49;70.60
19112;BME280;9688;51.906;8.376;2023-05-24T12:41:53;101474.69;;;16.47;70.59
19112;BME280;9688;51.906;8.376;2023-05-24T12:44:40;101463.94;;;16.49;70.95
19112;BME280;9688;51.906;8.376;2023-05-24T12:47:29;101472.22;;;16.43;71.17
19112;BME280;9688;51.906;8.376;2023-05-24T12:50:18;101463.97;;;16.30;71.08
19112;BME280;9688;51.906;8.376;2023-05-24T12:53:06;101472.13;;;16.27;71.58
19112;BME280;9688;51.906;8.376;2023-05-24T12:55:52;101472.28;;;16.24;71.48
19112;BME280;9688;51.906;8.376;2023-05-24T12:58:43;101470.63;;;16.21;71.79
19112;BME280;9688;51.906;8.376;2023-05-24T13:01:33;101476.47;;;16.11;72.08
19112;BME280;9688;51.906;8.376;2023-05-24T13:04:21;101477.78;;;16.02;72.64
19112;BME280;9688;51.906;8.376;2023-05-24T13:07:09;101475.38;;;15.96;72.48
19112;BME280;9688;51.906;8.376;2023-05-24T13:09:55;101469.44;;;15.91;72.68
19112;BME280;9688;51.906;8.376;2023-05-24T13:12:42;101475.81;;;15.87;73.40
19112;BME280;9688;51.906;8.376;2023-05-24T13:15:30;101470.84;;;15.79;73.40
19112;BME280;9688;51.906;8.376;2023-05-24T13:18:18;101477.13;;;15.78;72.94
19112;BME280;9688;51.906;8.376;2023-05-24T13:21:05;101477.47;;;15.70;73.33
19112;BME280;9688;51.906;8.376;2023-05-24T13:23:53;101476.72;;;15.67;73.86
19112;BME280;9688;51.906;8.376;2023-05-24T13:26:39;101474.19;;;15.64;73.93
19112;BME280;9688;51.906;8.376;2023-05-24T13:29:29;101474.34;;;15.60;74.63
19112;BME280;9688;51.906;8.376;2023-05-24T13:32:17;101471.81;;;15.57;74.96
19112;BME280;9688;51.906;8.376;2023-05-24T13:35:07;101470.28;;;15.52;76.37
19112;BME280;9688;51.906;8.376;2023-05-24T13:37:58;101460.56;;;15.51;76.80
19112;BME280;9688;51.906;8.376;2023-05-24T13:40:44;101471.72;;;15.59;77.25
19112;BME280;9688;51.906;8.376;2023-05-24T13:43:31;101469.59;;;15.67;76.86
19112;BME280;9688;51.906;8.376;2023-05-24T13:46:21;101472.84;;;15.74;76.78
19112;BME280;9688;51.906;8.376;2023-05-24T13:49:10;101463.34;;;15.87;76.88
19112;BME280;9688;51.906;8.376;2023-05-24T13:51:56;101458.38;;;15.98;76.25
19112;BME280;9688;51.906;8.376;2023-05-24T13:54:44;101468.69;;;16.06;75.65
19112;BME280;9688;51.906;8.376;2023-05-24T13:57:33;101467.72;;;16.07;76.04
19112;BME280;9688;51.906;8.376;2023-05-24T14:00:21;101467.72;;;16.07;75.69
19112;BME280;9688;51.906;8.376;2023-05-24T14:03:09;101460.69;;;16.06;75.86
19112;BME280;9688;51.906;8.376;2023-05-24T14:05:58;101463.00;;;16.14;75.05
19112;BME280;9688;51.906;8.376;2023-05-24T14:08:44;101464.50;;;16.19;75.12
19112;BME280;9688;51.906;8.376;2023-05-24T14:11:30;101470.38;;;16.26;74.90
19112;BME280;9688;51.906;8.376;2023-05-24T14:14:17;101467.72;;;16.26;74.21
19112;BME280;9688;51.906;8.376;2023-05-24T14:17:05;101462.66;;;16.39;74.34
19112;BME280;9688;51.906;8.376;2023-05-24T14:19:56;101461.56;;;16.43;73.68
19112;BME280;9688;51.906;8.376;2023-05-24T14:22:44;101456.53;;;16.54;73.57
19112;BME280;9688;51.906;8.376;2023-05-24T14:25:30;101470.47;;;16.61;73.53
19112;BME280;9688;51.906;8.376;2023-05-24T14:28:19;101469.50;;;16.62;74.17
19112;BME280;9688;51.906;8.376;2023-05-24T14:31:05;101465.44;;;16.55;73.85
19112;BME280;9688;51.906;8.376;2023-05-24T14:33:53;101462.03;;;16.51;73.92
19112;BME280;9688;51.906;8.376;2023-05-24T14:36:45;101459.47;;;16.49;73.49
19112;BME280;9688;51.906;8.376;2023-05-24T14:39:42;101459.38;;;16.51;73.94
19112;BME280;9688;51.906;8.376;2023-05-24T14:42:33;101459.31;;;16.53;74.06
19112;BME280;9688;51.906;8.376;2023-05-24T14:45:21;101472.50;;;16.56;73.19
19112;BME280;9688;51.906;8.376;2023-05-24T14:48:07;101459.09;;;16.57;72.51
19112;BME280;9688;51.906;8.376;2023-05-24T14:50:58;101461.66;;;16.59;72.59
19112;BME280;9688;51.906;8.376;2023-05-24T14:53:45;101469.66;;;16.59;73.00
19112;BME280;9688;51.906;8.376;2023-05-24T14:56:33;101465.34;;;16.56;73.00